Time;durP1;ratioP1;P1;durP2;ratioP2;P2;SDS_P1;SDS_P2;PMS_P1;PMS_P2;Temp;Humidity;BMP_temperature;BMP_pressure;BME280_temperature;BME280_humidity;BME280_pressure;Samples;Min_cycle;Max_cycle;Signal;HPM_P1;HPM_P2
2024/04/19 00:01:56;;;;;;;;;;;;;;;8.09;100.00;99570.13;5476429;26;20256;-84
2024/04/19 00:04:21;;;;;;;;;;;;;;;7.63;100.00;99578.16;5467728;26;19924;-82
2024/04/19 00:06:46;;;;;;;;;;;;;;;7.52;100.00;99578.00;5481067;26;19924;-81
2024/04/19 00:09:11;;;;;;;;;;;;;;;7.47;100.00;99573.34;5475669;26;20000;-81
2024/04/19 00:11:37;;;;;;;;;;;;;;;7.73;100.00;99576.91;5480437;26;19923;-82
2024/04/19 00:14:02;;;;;;;;;;;;;;;8.12;100.00;99583.00;5455783;26;19993;-81
2024/04/19 00:16:27;;;;;;;;;;;;;;;7.59;100.00;99581.47;5485803;26;20264;-82
2024/04/19 00:18:53;;;;;;;;;;;;;;;7.49;100.00;99575.78;5464800;26;19932;-81
2024/04/19 00:21:18;;;;;;;;;;;;;;;7.48;100.00;99574.13;5484018;26;19935;-82
2024/04/19 00:23:43;;;;;;;;;;;;;;;7.24;100.00;99574.63;5487433;26;19956;-80
2024/04/19 00:26:09;;;;;;;;;;;;;;;7.15;100.00;99585.69;5471226;26;19940;-83
2024/04/19 00:28:34;;;;;;;;;;;;;;;7.60;100.00;99583.91;5469673;26;19993;-82
2024/04/19 00:30:59;;;;;;;;;;;;;;;7.42;100.00;99595.19;5464681;26;19931;-80
2024/04/19 00:33:25;;;;;;;;;;;;;;;7.24;100.00;99595.84;5472142;26;19924;-80
2024/04/19 00:35:50;;;;;;;;;;;;;;;7.20;100.00;99584.03;5476210;26;19924;-80
2024/04/19 00:38:15;;;;;;;;;;;;;;;7.19;100.00;99587.72;5462021;26;19924;-81
2024/04/19 00:40:40;;;;;;;;;;;;;;;7.36;100.00;99587.28;5481468;26;20257;-80
2024/04/19 00:43:06;;;;;;;;;;;;;;;7.63;100.00;99599.38;5451829;26;20506;-82
2024/04/19 00:45:32;;;;;;;;;;;;;;;7.72;100.00;99602.59;5460749;26;19960;-81
2024/04/19 00:47:58;;;;;;;;;;;;;;;7.93;100.00;99609.47;5482274;26;20377;-81
2024/04/19 00:50:24;;;;;;;;;;;;;;;7.67;100.00;99609.59;5487539;26;19932;-81
2024/04/19 00:52:49;;;;;;;;;;;;;;;7.47;100.00;99604.38;5486985;26;20337;-81
2024/04/19 00:55:15;;;;;;;;;;;;;;;7.44;100.00;99600.31;5487019;26;20353;-81
2024/04/19 00:57:41;;;;;;;;;;;;;;;7.79;100.00;99606.06;5486893;26;19936;-81
2024/04/19 01:00:08;;;;;;;;;;;;;;;7.78;100.00;99612.38;5488351;26;19924;-81
2024/04/19 01:02:34;;;;;;;;;;;;;;;7.39;100.00;99613.38;5486833;26;19936;-81
2024/04/19 01:04:59;;;;;;;;;;;;;;;7.34;100.00;99605.22;5486667;26;19934;-82
2024/04/19 01:07:24;;;;;;;;;;;;;;;7.58;100.00;99601.88;5486332;26;19931;-81
2024/04/19 01:09:50;;;;;;;;;;;;;;;7.84;100.00;99613.38;5459023;26;19938;-82
2024/04/19 01:12:15;;;;;;;;;;;;;;;7.74;100.00;99602.41;5450385;26;19925;-82
2024/04/19 01:14:40;;;;;;;;;;;;;;;7.96;100.00;99600.25;5466905;26;19924;-81
2024/04/19 01:17:06;;;;;;;;;;;;;;;8.03;100.00;99604.50;5486949;26;19934;-81
2024/04/19 01:19:31;;;;;;;;;;;;;;;7.98;100.00;99603.50;5488259;26;20322;-82
2024/04/19 01:21:56;;;;;;;;;;;;;;;7.93;100.00;99590.88;5488683;26;19924;-82
2024/04/19 01:24:35;;;;;;;;;;;;;;;7.86;100.00;99592.75;5486157;26;19924;-82
2024/04/19 01:27:00;;;;;;;;;;;;;;;7.74;100.00;99589.94;5488162;26;20009;-81
2024/04/19 01:29:25;;;;;;;;;;;;;;;7.73;100.00;99595.47;5464879;26;20338;-82
2024/04/19 01:31:51;;;;;;;;;;;;;;;7.43;100.00;99593.34;5450154;26;19924;-82
2024/04/19 01:34:16;;;;;;;;;;;;;;;6.82;100.00;99598.00;5450338;26;19931;-81
2024/04/19 01:36:41;;;;;;;;;;;;;;;6.93;100.00;99585.94;5450774;26;19992;-82
2024/04/19 01:39:06;;;;;;;;;;;;;;;7.16;100.00;99593.44;5455292;26;19924;-81
2024/04/19 01:41:32;;;;;;;;;;;;;;;7.02;100.00;99590.00;5450329;26;19924;-82
2024/04/19 01:43:58;;;;;;;;;;;;;;;7.20;100.00;99594.66;5450379;26;19924;-82
2024/04/19 01:46:23;;;;;;;;;;;;;;;7.14;100.00;99592.81;5450119;26;19933;-82
2024/04/19 01:48:49;;;;;;;;;;;;;;;7.11;100.00;99610.97;5460653;26;19992;-82
2024/04/19 01:51:14;;;;;;;;;;;;;;;6.95;100.00;99607.75;5486465;26;19963;-81
2024/04/19 01:53:39;;;;;;;;;;;;;;;6.84;100.00;99617.16;5486521;26;19993;-82
2024/04/19 01:56:05;;;;;;;;;;;;;;;6.88;100.00;99630.78;5486858;26;19924;-82
2024/04/19 01:58:30;;;;;;;;;;;;;;;7.16;100.00;99622.59;5483618;26;20694;-82
2024/04/19 02:00:55;;;;;;;;;;;;;;;7.47;100.00;99637.00;5449450;26;19925;-83
2024/04/19 02:03:20;;;;;;;;;;;;;;;7.55;100.00;99623.50;5449705;26;19936;-82
2024/04/19 02:05:46;;;;;;;;;;;;;;;7.76;100.00;99626.91;5449582;26;20289;-82
2024/04/19 02:08:11;;;;;;;;;;;;;;;7.84;100.00;99626.66;5450991;26;19940;-82
2024/04/19 02:10:36;;;;;;;;;;;;;;;7.95;100.00;99623.34;5482811;26;20340;-82
2024/04/19 02:13:02;;;;;;;;;;;;;;;7.78;100.00;99627.50;5485647;26;19924;-82
2024/04/19 02:15:27;;;;;;;;;;;;;;;7.33;100.00;99628.28;5486011;26;19923;-83
2024/04/19 02:17:52;;;;;;;;;;;;;;;7.07;100.00;99631.81;5487678;26;19924;-82
2024/04/19 02:20:17;;;;;;;;;;;;;;;6.98;100.00;99630.38;5488944;26;19935;-82
2024/04/19 02:22:43;;;;;;;;;;;;;;;6.94;100.00;99626.50;5489451;26;19924;-82
2024/04/19 02:25:08;;;;;;;;;;;;;;;6.72;100.00;99628.56;5489843;26;19924;-82
2024/04/19 02:33:01;;;;;;;;;;;;;;;7.17;100.00;99631.38;5492383;26;20325;-82
2024/04/19 02:35:27;;;;;;;;;;;;;;;7.53;100.00;99635.38;5491038;26;20434;-83
2024/04/19 02:37:52;;;;;;;;;;;;;;;7.63;100.00;99639.19;5491879;26;19932;-82
2024/04/19 02:40:18;;;;;;;;;;;;;;;7.70;100.00;99639.16;5460404;26;19925;-82
2024/04/19 02:42:43;;;;;;;;;;;;;;;7.72;100.00;99633.66;5450117;26;19924;-84
2024/04/19 02:45:08;;;;;;;;;;;;;;;7.61;100.00;99627.16;5451401;26;19924;-82
2024/04/19 02:47:36;;;;;;;;;;;;;;;7.66;100.00;99635.31;5450907;26;19924;-82
2024/04/19 02:50:01;;;;;;;;;;;;;;;7.67;100.00;99629.00;5472793;26;19935;-82
2024/04/19 02:52:26;;;;;;;;;;;;;;;7.65;100.00;99639.81;5487405;26;19924;-81
2024/04/19 02:54:52;;;;;;;;;;;;;;;7.58;100.00;99644.34;5485074;26;20341;-82
2024/04/19 02:57:17;;;;;;;;;;;;;;;7.56;100.00;99656.16;5483914;26;19939;-83
2024/04/19 02:59:42;;;;;;;;;;;;;;;7.51;100.00;99651.50;5465740;26;20275;-82
2024/04/19 03:02:08;;;;;;;;;;;;;;;7.47;100.00;99644.97;5447436;26;20257;-83
2024/04/19 03:04:36;;;;;;;;;;;;;;;7.36;100.00;99645.63;5481165;26;19932;-83
2024/04/19 03:07:01;;;;;;;;;;;;;;;7.48;100.00;99640.47;5483728;26;19923;-82
2024/04/19 03:09:26;;;;;;;;;;;;;;;7.28;100.00;99643.19;5474226;26;20362;-81
2024/04/19 03:11:52;;;;;;;;;;;;;;;7.31;100.00;99653.38;5448714;26;19925;-82
2024/04/19 03:14:17;;;;;;;;;;;;;;;7.03;100.00;99659.75;5448543;26;20250;-83
2024/04/19 03:16:42;;;;;;;;;;;;;;;6.36;100.00;99654.44;5448352;26;19925;-82
2024/04/19 03:19:07;;;;;;;;;;;;;;;6.26;100.00;99661.94;5451209;26;20249;-82
2024/04/19 03:21:34;;;;;;;;;;;;;;;6.17;100.00;99663.97;5448759;26;19924;-82
2024/04/19 03:23:59;;;;;;;;;;;;;;;5.62;100.00;99656.00;5450077;26;19937;-82
2024/04/19 03:26:25;;;;;;;;;;;;;;;5.24;100.00;99672.25;5448334;26;19931;-82
2024/04/19 03:28:51;;;;;;;;;;;;;;;4.84;100.00;99668.50;5450922;26;19940;-81
2024/04/19 03:31:16;;;;;;;;;;;;;;;4.69;100.00;99673.06;5448463;26;20350;-81
2024/04/19 03:33:41;;;;;;;;;;;;;;;4.92;100.00;99675.47;5449397;26;19925;-82
2024/04/19 03:36:06;;;;;;;;;;;;;;;5.60;100.00;99673.91;5451546;26;20358;-82
2024/04/19 03:38:32;;;;;;;;;;;;;;;5.94;100.00;99671.38;5452076;26;19931;-81
2024/04/19 03:40:57;;;;;;;;;;;;;;;6.08;100.00;99672.28;5484826;26;19930;-81
2024/04/19 03:43:23;;;;;;;;;;;;;;;6.18;100.00;99670.06;5488468;26;19940;-81
2024/04/19 03:45:49;;;;;;;;;;;;;;;6.12;100.00;99670.88;5488054;26;20374;-81
2024/04/19 03:48:14;;;;;;;;;;;;;;;6.13;100.00;99675.13;5488144;26;19976;-82
2024/04/19 03:50:40;;;;;;;;;;;;;;;6.42;100.00;99688.06;5484979;26;20322;-81
2024/04/19 03:53:05;;;;;;;;;;;;;;;6.54;100.00;99696.22;5488722;26;19924;-81
2024/04/19 03:55:30;;;;;;;;;;;;;;;6.63;100.00;99691.56;5489986;26;19932;-82
2024/04/19 03:57:56;;;;;;;;;;;;;;;6.09;100.00;99693.28;5487948;26;19924;-81
2024/04/19 04:00:22;;;;;;;;;;;;;;;5.99;100.00;99693.63;5469077;26;20253;-82
2024/04/19 04:02:49;;;;;;;;;;;;;;;5.70;100.00;99678.00;5451405;26;19936;-81
2024/04/19 04:05:15;;;;;;;;;;;;;;;5.23;100.00;99694.44;5451338;26;19925;-81
2024/04/19 04:07:40;;;;;;;;;;;;;;;5.23;100.00;99699.72;5453082;26;19932;-82
2024/04/19 04:10:05;;;;;;;;;;;;;;;5.49;100.00;99703.53;5471032;26;19923;-82
2024/04/19 04:12:32;;;;;;;;;;;;;;;6.06;100.00;99704.25;5487573;26;19996;-81
2024/04/19 04:14:57;;;;;;;;;;;;;;;6.27;100.00;99711.22;5487724;26;19931;-82
2024/04/19 04:17:22;;;;;;;;;;;;;;;6.51;100.00;99722.31;5489611;26;19939;-81
2024/04/19 04:19:48;;;;;;;;;;;;;;;6.64;100.00;99717.84;5488991;26;20241;-81
2024/04/19 04:22:13;;;;;;;;;;;;;;;6.49;100.00;99713.75;5489172;26;19931;-81
2024/04/19 04:24:38;;;;;;;;;;;;;;;6.10;100.00;99712.63;5487063;26;19924;-82
2024/04/19 04:27:04;;;;;;;;;;;;;;;6.48;100.00;99712.09;5489427;26;19924;-82
2024/04/19 04:29:29;;;;;;;;;;;;;;;6.83;100.00;99716.22;5480072;26;19951;-81
2024/04/19 04:31:55;;;;;;;;;;;;;;;6.96;100.00;99725.22;5450712;26;19925;-82
2024/04/19 04:34:20;;;;;;;;;;;;;;;6.80;100.00;99727.25;5450937;26;19931;-80
2024/04/19 04:36:45;;;;;;;;;;;;;;;6.71;100.00;99717.84;5450873;26;19993;-82
2024/04/19 04:39:11;;;;;;;;;;;;;;;7.02;100.00;99729.69;5452660;26;20001;-82
2024/04/19 04:41:39;;;;;;;;;;;;;;;7.36;100.00;99736.63;5451876;26;19925;-81
2024/04/19 04:44:04;;;;;;;;;;;;;;;7.47;100.00;99743.13;5452028;26;20338;-81
2024/04/19 04:46:30;;;;;;;;;;;;;;;7.61;100.00;99754.56;5450666;26;19932;-81
2024/04/19 04:48:55;;;;;;;;;;;;;;;7.68;100.00;99750.03;5450521;26;20247;-83
2024/04/19 04:51:20;;;;;;;;;;;;;;;8.08;100.00;99760.56;5453289;26;19960;-81
2024/04/19 04:53:45;;;;;;;;;;;;;;;8.12;100.00;99758.31;5450774;26;20397;-81
2024/04/19 04:56:11;;;;;;;;;;;;;;;8.52;97.70;99758.13;5450657;26;19957;-81
2024/04/19 04:58:36;;;;;;;;;;;;;;;8.73;95.19;99765.78;5450288;26;19932;-81
2024/04/19 05:01:01;;;;;;;;;;;;;;;8.62;94.50;99756.66;5452747;26;19932;-81
2024/04/19 05:03:26;;;;;;;;;;;;;;;8.42;99.16;99746.13;5451831;26;19936;-81
2024/04/19 05:05:52;;;;;;;;;;;;;;;8.24;100.00;99759.28;5450512;26;19931;-83
2024/04/19 05:08:17;;;;;;;;;;;;;;;8.02;100.00;99762.19;5450167;26;19944;-82
2024/04/19 05:10:42;;;;;;;;;;;;;;;8.31;100.00;99764.53;5473680;26;20345;-81
2024/04/19 05:13:08;;;;;;;;;;;;;;;8.36;98.57;99773.53;5486207;26;20310;-82
2024/04/19 05:15:33;;;;;;;;;;;;;;;8.44;97.26;99769.84;5486588;26;19924;-82
2024/04/19 05:17:58;;;;;;;;;;;;;;;8.56;94.07;99769.97;5486489;26;19924;-81
2024/04/19 05:20:25;;;;;;;;;;;;;;;8.72;91.87;99777.44;5471906;26;19924;-81
2024/04/19 05:22:50;;;;;;;;;;;;;;;8.57;93.98;99768.94;5450250;26;19925;-81
2024/04/19 05:25:15;;;;;;;;;;;;;;;8.71;92.21;99781.16;5449551;26;20297;-81
2024/04/19 05:27:42;;;;;;;;;;;;;;;9.18;89.50;99792.28;5449962;26;19928;-82
2024/04/19 05:30:08;;;;;;;;;;;;;;;8.97;93.14;99795.28;5452613;26;19934;-82
2024/04/19 05:32:33;;;;;;;;;;;;;;;9.15;96.18;99798.03;5453457;26;20346;-80
2024/04/19 05:34:58;;;;;;;;;;;;;;;9.20;97.22;99795.53;5464739;26;20273;-80
2024/04/19 05:37:24;;;;;;;;;;;;;;;9.41;91.65;99790.88;5461680;26;19931;-81
2024/04/19 05:39:49;;;;;;;;;;;;;;;9.80;89.02;99796.88;5468446;26;19924;-80
2024/04/19 05:42:14;;;;;;;;;;;;;;;9.69;89.04;99792.28;5465998;26;19931;-80
2024/04/19 05:44:41;;;;;;;;;;;;;;;9.93;87.40;99791.41;5466450;26;19924;-80
2024/04/19 05:47:06;;;;;;;;;;;;;;;10.32;87.04;99789.38;5448797;26;19932;-81
2024/04/19 05:49:31;;;;;;;;;;;;;;;10.42;82.26;99786.97;5450639;26;19928;-81
2024/04/19 05:51:57;;;;;;;;;;;;;;;10.61;81.42;99789.63;5486979;26;19924;-80
2024/04/19 05:54:22;;;;;;;;;;;;;;;10.49;79.78;99796.75;5485576;26;20028;-80
2024/04/19 05:56:48;;;;;;;;;;;;;;;10.42;80.01;99796.81;5485679;26;20004;-81
2024/04/19 05:59:13;;;;;;;;;;;;;;;10.64;79.99;99789.16;5487369;26;19935;-81
2024/04/19 06:01:39;;;;;;;;;;;;;;;10.88;78.48;99790.06;5484119;26;19924;-80
2024/04/19 06:04:04;;;;;;;;;;;;;;;11.06;77.95;99792.66;5486657;26;19968;-80
2024/04/19 06:06:30;;;;;;;;;;;;;;;11.23;75.23;99792.78;5479043;26;20575;-81
2024/04/19 06:08:55;;;;;;;;;;;;;;;11.69;74.24;99797.59;5475937;26;19924;-81
2024/04/19 06:11:21;;;;;;;;;;;;;;;11.73;69.18;99807.59;5475197;26;19924;-80
2024/04/19 06:13:47;;;;;;;;;;;;;;;11.47;71.32;99798.16;5470152;26;20045;-80
2024/04/19 06:16:12;;;;;;;;;;;;;;;11.37;72.83;99800.59;5478896;26;19992;-80
2024/04/19 06:18:38;;;;;;;;;;;;;;;11.55;72.31;99805.03;5469688;26;19931;-80
2024/04/19 06:21:03;;;;;;;;;;;;;;;11.68;69.99;99809.31;5474400;26;19935;-81
2024/04/19 06:23:28;;;;;;;;;;;;;;;11.65;66.39;99821.28;5477732;26;19923;-80
2024/04/19 06:25:55;;;;;;;;;;;;;;;11.58;66.22;99812.56;5465887;26;19925;-80
2024/04/19 06:28:21;;;;;;;;;;;;;;;11.86;65.63;99817.22;5465370;26;20253;-80
2024/04/19 06:30:46;;;;;;;;;;;;;;;12.22;63.89;99826.06;5524498;25;19923;-81
2024/04/19 06:33:11;;;;;;;;;;;;;;;11.99;62.18;99822.38;5465306;26;19931;-80
2024/04/19 06:35:37;;;;;;;;;;;;;;;11.93;60.39;99834.00;5474498;26;20250;-79
2024/04/19 06:38:02;;;;;;;;;;;;;;;12.04;62.88;99830.47;5462307;26;19924;-80
2024/04/19 06:40:27;;;;;;;;;;;;;;;12.22;60.71;99821.50;5482255;26;20237;-79
2024/04/19 06:42:53;;;;;;;;;;;;;;;12.30;59.41;99833.72;5485884;26;20424;-81
2024/04/19 06:45:18;;;;;;;;;;;;;;;12.33;62.20;99825.19;5484398;26;19924;-82
2024/04/19 06:47:43;;;;;;;;;;;;;;;12.32;61.15;99826.28;5484643;26;20285;-83
2024/04/19 06:50:08;;;;;;;;;;;;;;;12.41;60.13;99814.13;5481798;26;20267;-81
2024/04/19 06:52:34;;;;;;;;;;;;;;;12.49;60.37;99822.84;5447684;26;19924;-80
2024/04/19 06:54:59;;;;;;;;;;;;;;;12.27;60.85;99821.59;5449294;26;19932;-81
2024/04/19 06:57:24;;;;;;;;;;;;;;;12.51;60.42;99808.19;5449293;26;19931;-82
2024/04/19 06:59:50;;;;;;;;;;;;;;;12.50;60.82;99819.13;5449467;26;19931;-79
2024/04/19 07:02:15;;;;;;;;;;;;;;;12.48;58.62;99813.19;5448040;26;20262;-80
2024/04/19 07:04:41;;;;;;;;;;;;;;;12.45;59.52;99815.28;5449159;26;19931;-79
2024/04/19 07:07:06;;;;;;;;;;;;;;;13.07;59.73;99806.50;5449414;26;20342;-82
2024/04/19 07:09:32;;;;;;;;;;;;;;;13.52;58.30;99812.91;5451392;26;19936;-83
2024/04/19 07:11:57;;;;;;;;;;;;;;;13.55;57.56;99812.44;5481901;26;20352;-80
2024/04/19 07:14:22;;;;;;;;;;;;;;;13.77;54.83;99811.66;5487075;26;19956;-79
2024/04/19 07:16:48;;;;;;;;;;;;;;;14.35;56.22;99815.66;5489119;26;20246;-81
2024/04/19 07:19:13;;;;;;;;;;;;;;;14.55;54.45;99823.16;5487279;26;19923;-80
2024/04/19 07:21:38;;;;;;;;;;;;;;;14.37;54.14;99813.53;5485863;26;19960;-79
2024/04/19 07:24:04;;;;;;;;;;;;;;;14.60;52.99;99822.41;5489279;26;19948;-80
2024/04/19 07:26:30;;;;;;;;;;;;;;;14.62;53.24;99817.63;5474115;26;19924;-79
2024/04/19 07:28:58;;;;;;;;;;;;;;;14.73;53.64;99816.66;5470241;26;19992;-80
2024/04/19 07:31:23;;;;;;;;;;;;;;;14.94;54.58;99812.31;5470630;26;19956;-79
2024/04/19 07:33:48;;;;;;;;;;;;;;;14.86;51.56;99823.50;5488053;26;19948;-84
2024/04/19 07:36:14;;;;;;;;;;;;;;;14.70;54.31;99821.72;5489739;26;19923;-82
2024/04/19 07:38:39;;;;;;;;;;;;;;;14.43;52.72;99815.22;5487908;26;19931;-80
2024/04/19 07:41:04;;;;;;;;;;;;;;;14.49;54.60;99807.25;5476641;26;20350;-81
2024/04/19 07:43:30;;;;;;;;;;;;;;;14.44;56.14;99799.94;5451010;26;19925;-82
2024/04/19 07:45:55;;;;;;;;;;;;;;;14.53;52.49;99811.84;5451099;26;20266;-81
2024/04/19 07:48:21;;;;;;;;;;;;;;;14.49;50.66;99808.06;5450852;26;19924;-81
2024/04/19 07:50:46;;;;;;;;;;;;;;;14.44;52.45;99813.34;5454081;26;19996;-81
2024/04/19 07:53:11;;;;;;;;;;;;;;;14.58;53.37;99813.81;5452501;26;20338;-81
2024/04/19 07:55:40;;;;;;;;;;;;;;;14.62;53.98;99809.56;5450329;26;19924;-81
2024/04/19 07:58:05;;;;;;;;;;;;;;;14.61;52.78;99818.69;5451911;26;19928;-81
2024/04/19 08:00:30;;;;;;;;;;;;;;;14.76;53.06;99816.16;5454370;26;19992;-82
2024/04/19 08:02:56;;;;;;;;;;;;;;;15.12;53.78;99807.63;5450231;26;19924;-82
2024/04/19 08:05:22;;;;;;;;;;;;;;;15.06;50.95;99814.84;5449982;26;19939;-82
2024/04/19 08:07:49;;;;;;;;;;;;;;;15.21;51.43;99806.91;5450240;26;20246;-81
2024/04/19 08:10:16;;;;;;;;;;;;;;;15.51;49.93;99816.28;5450941;26;19924;-81
2024/04/19 08:12:41;;;;;;;;;;;;;;;15.49;53.67;99813.06;5486565;26;19930;-81
2024/04/19 08:15:06;;;;;;;;;;;;;;;15.56;50.93;99821.69;5488537;26;20253;-81
2024/04/19 08:17:32;;;;;;;;;;;;;;;15.67;47.50;99826.09;5488794;26;19924;-81
2024/04/19 08:19:57;;;;;;;;;;;;;;;15.72;48.05;99819.97;5487995;26;19924;-80
2024/04/19 08:22:22;;;;;;;;;;;;;;;15.77;49.00;99819.19;5487639;26;19923;-81
2024/04/19 08:24:48;;;;;;;;;;;;;;;16.02;48.52;99813.97;5486547;26;19935;-81
2024/04/19 08:27:13;;;;;;;;;;;;;;;15.99;48.84;99806.41;5487872;26;19923;-81
2024/04/19 08:29:38;;;;;;;;;;;;;;;15.83;44.95;99812.75;5488415;26;19930;-81
2024/04/19 08:32:05;;;;;;;;;;;;;;;16.05;47.29;99810.72;5462703;26;19924;-81
2024/04/19 08:34:30;;;;;;;;;;;;;;;15.96;43.26;99806.13;5451792;26;19925;-81
2024/04/19 08:36:56;;;;;;;;;;;;;;;16.12;43.20;99794.38;5451584;26;19924;-81
2024/04/19 08:39:21;;;;;;;;;;;;;;;16.16;43.70;99791.94;5449842;26;19935;-81
2024/04/19 08:41:47;;;;;;;;;;;;;;;16.06;42.22;99774.72;5472313;26;19931;-83
2024/04/19 08:44:13;;;;;;;;;;;;;;;16.08;43.97;99777.16;5486358;26;19934;-80
2024/04/19 08:46:39;;;;;;;;;;;;;;;15.88;43.32;99783.22;5486365;26;20365;-81
2024/04/19 08:49:07;;;;;;;;;;;;;;;16.50;42.31;99772.72;5487645;26;19932;-81
2024/04/19 08:51:32;;;;;;;;;;;;;;;17.16;42.85;99772.84;5472000;26;20018;-81
2024/04/19 08:53:57;;;;;;;;;;;;;;;17.05;42.25;99773.91;5449500;26;20337;-81
2024/04/19 08:56:24;;;;;;;;;;;;;;;17.23;43.61;99765.28;5451455;26;20340;-81
2024/04/19 08:58:50;;;;;;;;;;;;;;;17.55;41.86;99766.03;5449455;26;19939;-81
2024/04/19 09:01:15;;;;;;;;;;;;;;;17.48;40.50;99771.72;5454230;26;19924;-81
2024/04/19 09:03:40;;;;;;;;;;;;;;;17.09;38.41;99772.28;5449433;26;19948;-81
2024/04/19 09:06:07;;;;;;;;;;;;;;;17.27;40.39;99768.25;5451151;26;19931;-82
2024/04/19 09:08:33;;;;;;;;;;;;;;;16.76;38.21;99766.31;5448958;26;19924;-81
2024/04/19 09:10:58;;;;;;;;;;;;;;;17.03;38.85;99759.91;5453503;26;19931;-81
2024/04/19 09:13:23;;;;;;;;;;;;;;;17.15;41.39;99757.75;5449362;26;19924;-79
2024/04/19 09:15:49;;;;;;;;;;;;;;;17.82;34.99;99765.75;5449674;26;19924;-80
2024/04/19 09:18:14;;;;;;;;;;;;;;;17.80;35.82;99757.91;5451673;26;19936;-81
2024/04/19 09:20:46;;;;;;;;;;;;;;;18.02;36.97;99760.31;5452101;26;20331;-83
2024/04/19 09:23:11;;;;;;;;;;;;;;;17.95;38.51;99753.59;5451577;26;19924;-81
2024/04/19 09:25:40;;;;;;;;;;;;;;;18.72;37.19;99759.41;5451108;26;20000;-81
2024/04/19 09:28:09;;;;;;;;;;;;;;;18.85;34.70;99756.09;5450644;26;20353;-80
2024/04/19 09:30:34;;;;;;;;;;;;;;;17.83;34.93;99749.28;5450545;26;19931;-81
2024/04/19 09:32:59;;;;;;;;;;;;;;;17.76;37.15;99745.25;5450699;26;19924;-82
2024/04/19 09:35:27;;;;;;;;;;;;;;;17.78;35.95;99748.50;5449409;26;19931;-83
2024/04/19 09:37:53;;;;;;;;;;;;;;;17.53;37.31;99747.47;5447365;26;20264;-81
2024/04/19 09:40:20;;;;;;;;;;;;;;;17.08;37.20;99735.66;5448974;26;19924;-81
2024/04/19 09:42:46;;;;;;;;;;;;;;;18.10;37.72;99731.91;5447563;26;19924;-81
2024/04/19 09:45:12;;;;;;;;;;;;;;;18.42;36.30;99736.88;5449687;26;19994;-82
2024/04/19 09:47:38;;;;;;;;;;;;;;;19.03;34.94;99737.59;5449310;26;19925;-82
2024/04/19 09:50:05;;;;;;;;;;;;;;;19.47;36.26;99733.94;5451468;26;19924;-83
2024/04/19 09:52:31;;;;;;;;;;;;;;;19.52;33.92;99731.19;5453188;26;19931;-83
2024/04/19 09:55:09;;;;;;;;;;;;;;;19.22;34.52;99730.38;5451172;26;19924;-82
2024/04/19 09:57:35;;;;;;;;;;;;;;;18.53;36.24;99726.03;5448918;26;19924;-83
2024/04/19 10:00:01;;;;;;;;;;;;;;;18.19;35.42;99724.06;5451237;26;19924;-82
2024/04/19 10:02:28;;;;;;;;;;;;;;;17.91;35.76;99723.66;5451672;26;19984;-82
2024/04/19 10:04:54;;;;;;;;;;;;;;;17.90;35.94;99723.91;5448804;26;20350;-81
2024/04/19 10:07:20;;;;;;;;;;;;;;;17.60;38.13;99712.94;5450408;26;19932;-81
2024/04/19 10:09:46;;;;;;;;;;;;;;;17.50;39.30;99721.03;5448931;26;19931;-82
2024/04/19 10:12:12;;;;;;;;;;;;;;;17.59;37.30;99713.19;5452822;26;19931;-83
2024/04/19 10:14:37;;;;;;;;;;;;;;;17.24;34.79;99718.41;5450259;26;20265;-83
2024/04/19 10:17:02;;;;;;;;;;;;;;;17.48;35.60;99709.72;5450822;26;20337;-80
2024/04/19 10:19:32;;;;;;;;;;;;;;;17.82;38.00;99706.41;5450077;26;19924;-82
2024/04/19 10:21:59;;;;;;;;;;;;;;;18.04;34.82;99709.56;5465269;26;19939;-81
2024/04/19 10:24:25;;;;;;;;;;;;;;;18.33;32.81;99710.75;5484364;26;19931;-82
2024/04/19 10:26:50;;;;;;;;;;;;;;;18.62;31.46;99708.16;5486481;26;19992;-82
2024/04/19 10:29:26;;;;;;;;;;;;;;;18.93;29.53;99710.66;5484311;26;19931;-82
2024/04/19 10:31:52;;;;;;;;;;;;;;;18.27;31.65;99702.69;5473353;26;19924;-81
2024/04/19 10:34:18;;;;;;;;;;;;;;;18.75;33.46;99691.31;5449612;26;19924;-82
2024/04/19 10:36:45;;;;;;;;;;;;;;;18.52;31.67;99692.03;5447713;26;19997;-82
2024/04/19 10:39:10;;;;;;;;;;;;;;;18.93;32.15;99691.75;5449984;26;20422;-82
2024/04/19 10:41:36;;;;;;;;;;;;;;;19.05;33.14;99684.06;5452377;26;19932;-82
2024/04/19 10:44:01;;;;;;;;;;;;;;;18.93;32.34;99689.84;5451190;26;19938;-82
2024/04/19 10:46:27;;;;;;;;;;;;;;;19.00;32.49;99686.81;5453554;26;20018;-81
2024/04/19 10:48:53;;;;;;;;;;;;;;;19.31;31.55;99686.50;5453555;26;19925;-84
2024/04/19 10:51:20;;;;;;;;;;;;;;;19.21;29.58;99685.53;5454652;26;19924;-82
2024/04/19 10:53:45;;;;;;;;;;;;;;;19.89;30.98;99675.59;5487640;26;19967;-84
2024/04/19 10:56:10;;;;;;;;;;;;;;;19.93;31.04;99681.25;5489497;26;20070;-82
2024/04/19 10:58:36;;;;;;;;;;;;;;;20.24;31.24;99671.59;5487484;26;19924;-82
2024/04/19 11:01:01;;;;;;;;;;;;;;;20.29;30.38;99673.44;5487999;26;19931;-82
2024/04/19 11:03:27;;;;;;;;;;;;;;;19.96;29.39;99676.06;5453153;26;19955;-83
2024/04/19 11:05:53;;;;;;;;;;;;;;;20.50;30.57;99673.16;5451409;26;20011;-82
2024/04/19 11:08:19;;;;;;;;;;;;;;;20.73;30.14;99666.84;5453530;26;19925;-84
2024/04/19 11:10:45;;;;;;;;;;;;;;;20.59;26.94;99668.69;5451414;26;19931;-83
2024/04/19 11:13:10;;;;;;;;;;;;;;;20.69;28.83;99665.00;5455615;26;19924;-82
2024/04/19 11:15:36;;;;;;;;;;;;;;;19.55;28.38;99665.69;5453200;26;19931;-81
2024/04/19 11:18:01;;;;;;;;;;;;;;;19.96;30.23;99659.84;5451026;26;19925;-81
2024/04/19 11:20:26;;;;;;;;;;;;;;;20.95;27.87;99651.84;5451404;26;19935;-84
2024/04/19 11:22:52;;;;;;;;;;;;;;;20.73;26.60;99660.63;5451167;26;19928;-81
2024/04/19 11:25:17;;;;;;;;;;;;;;;21.48;28.02;99640.56;5451304;26;19932;-84
2024/04/19 11:27:43;;;;;;;;;;;;;;;20.89;25.65;99647.63;5451251;26;19931;-82
2024/04/19 11:30:09;;;;;;;;;;;;;;;20.59;27.66;99641.59;5452775;26;20001;-83
2024/04/19 11:32:34;;;;;;;;;;;;;;;20.61;28.02;99637.47;5453362;26;19931;-81
2024/04/19 11:35:00;;;;;;;;;;;;;;;20.92;25.17;99636.16;5450955;26;19957;-81
2024/04/19 11:37:26;;;;;;;;;;;;;;;20.59;25.39;99636.19;5451045;26;20731;-82
2024/04/19 11:39:51;;;;;;;;;;;;;;;21.43;26.58;99635.25;5450976;26;19949;-84
2024/04/19 11:42:17;;;;;;;;;;;;;;;21.23;27.40;99626.38;5463544;26;19931;-83
2024/04/19 11:44:44;;;;;;;;;;;;;;;21.32;25.57;99622.97;5489219;26;19948;-83
2024/04/19 11:47:09;;;;;;;;;;;;;;;21.60;24.89;99627.31;5487274;26;19923;-82
2024/04/19 11:49:34;;;;;;;;;;;;;;;22.03;25.82;99621.50;5479174;26;20269;-85
2024/04/19 11:52:00;;;;;;;;;;;;;;;22.22;22.95;99617.81;5465892;26;19924;-83
2024/04/19 11:54:27;;;;;;;;;;;;;;;22.15;22.15;99618.25;5475281;26;19931;-84
2024/04/19 11:56:56;;;;;;;;;;;;;;;22.80;21.90;99614.25;5465829;26;19936;-82
2024/04/19 11:59:21;;;;;;;;;;;;;;;21.65;23.09;99613.63;5528633;25;19923;-84
2024/04/19 12:01:46;;;;;;;;;;;;;;;21.67;23.08;99607.91;5465014;26;20254;-82
2024/04/19 12:04:12;;;;;;;;;;;;;;;21.62;25.06;99603.38;5472218;26;19966;-83
2024/04/19 12:06:37;;;;;;;;;;;;;;;21.28;24.79;99595.63;5529864;25;19928;-85
2024/04/19 12:09:03;;;;;;;;;;;;;;;22.26;24.19;99597.09;5468427;26;19932;-85
2024/04/19 12:11:28;;;;;;;;;;;;;;;22.13;25.45;99592.47;5466432;26;19931;-85
2024/04/19 12:13:53;;;;;;;;;;;;;;;21.51;25.21;99593.84;5465554;26;19932;-84
2024/04/19 12:16:19;;;;;;;;;;;;;;;22.27;23.31;99583.22;5471038;26;19923;-82
2024/04/19 12:18:44;;;;;;;;;;;;;;;22.38;24.71;99582.97;5472929;26;20859;-85
2024/04/19 12:21:11;;;;;;;;;;;;;;;23.05;23.16;99582.88;5471136;26;19993;-82
2024/04/19 12:23:36;;;;;;;;;;;;;;;23.79;25.40;99577.81;5468338;26;19924;-83
2024/04/19 12:26:01;;;;;;;;;;;;;;;23.12;25.41;99568.81;5469725;26;19924;-82
2024/04/19 12:28:28;;;;;;;;;;;;;;;22.34;25.75;99566.47;5459420;26;20451;-80
2024/04/19 12:30:54;;;;;;;;;;;;;;;23.03;25.61;99573.44;5469624;26;20318;-83
2024/04/19 12:33:19;;;;;;;;;;;;;;;22.65;25.17;99571.94;5467488;26;19924;-82
2024/04/19 12:35:45;;;;;;;;;;;;;;;23.76;23.52;99578.41;5477800;26;19931;-83
2024/04/19 12:38:11;;;;;;;;;;;;;;;23.67;24.61;99568.31;5467400;26;19931;-83
2024/04/19 12:40:36;;;;;;;;;;;;;;;24.59;23.31;99563.84;5489867;25;19931;-84
2024/04/19 12:43:02;;;;;;;;;;;;;;;22.83;24.93;99553.81;5469501;26;19996;-82
2024/04/19 12:45:28;;;;;;;;;;;;;;;22.77;26.72;99546.91;5485832;26;20728;-82